Аэропорт: Алматы. Алма-Ата

ICAO: UAAA

METAR:
2019-09-21 16:00:00
UAAA 211600Z 15003MPS 9999 FEW100 19/09 Q1013 R88/65D NOSIG
METAR:
2019-09-21 11:00:00
TAF UAAA 211100Z 2112/2212 14004MPS 9999 SCT050CB SCT100 TX33/2208Z TN14/2201Z TEMPO 2113/2122 20003MPS 3100 FU BECMG 2202/2203 04003G08MPS